KBEH/BEH METAR and TAF weather

Enter ICAO airport designator
Station Type Date Time Source
KBEH METAR 2019/09/20 19:53 UTC NOAA

KBEH 201953Z AUTO 30004KT 10SM CLR 27/19 A3011 RMK AO2 SLP191 T02720189


Station Type Date Time Source
KBEH Decoded METAR 2019/09/20 19:53 UTC NOAA

SOUTHWEST MICHIGAN REGIONAL, MI, United States (KBEH) 42-08N 86-25W 191M
Sep 20, 2019 - 03:53 PM EDT / 2019.09.20 1953 UTC
Wind: from the WNW (300 degrees) at 5 MPH (4 KT):0
Visibility: 10 mile(s):0
Sky conditions: clear
Temperature: 81.0 F (27.2 C)
Dew Point: 66.0 F (18.9 C)
Relative Humidity: 60%
Pressure (altimeter): 30.11 in. Hg (1019 hPa)
ob: KBEH 201953Z AUTO 30004KT 10SM CLR 27/19 A3011 RMK AO2 SLP191 T02720189
cycle: 20

Station Type Date Time Source
KBEH TAF UTC NOAA

Error!

Example: see airport list